Terminal Aerodrome Forecast
Issued by NWS Louisville, KY

Home | Current Version | Previous Version | Text Only | Print | Product List | Glossary On
Versions: 1 2 3 4 5 6 7 8 9 10 11 12 13 14 15 16 17 18 19
468
FTUS43 KLMK 240524
TAFBWG
TAF
KBWG 240524Z 2406/2506 18011KT P6SM BKN150 WS020/20040KT
     FM241400 18011KT P6SM SCT180
     FM241600 19019G29KT P6SM SCT040 SCT150
     FM242300 24010G18KT 5SM -SHRA VCTS OVC040CB
     FM250300 25010G20KT P6SM BKN030=

USA.gov is the U.S. government's official web portal to all federal, state and local government web resources and services.